createdAt,value
2022-12-15T00:00:16.924Z,81.29
2022-12-15T00:01:16.905Z,81.40
2022-12-15T00:02:16.948Z,81.46
2022-12-15T00:03:16.974Z,81.46
2022-12-15T00:04:16.904Z,81.36
2022-12-15T00:05:16.866Z,81.12
2022-12-15T00:06:16.899Z,81.01
2022-12-15T00:07:16.844Z,81.04
2022-12-15T00:08:16.844Z,81.26
2022-12-15T00:09:20.455Z,81.32
2022-12-15T00:10:16.833Z,81.01
2022-12-15T00:11:16.803Z,80.90
2022-12-15T00:12:16.794Z,80.90
2022-12-15T00:13:16.782Z,81.12
2022-12-15T00:14:16.792Z,80.90
2022-12-15T00:15:16.763Z,80.80
2022-12-15T00:16:16.879Z,80.90
2022-12-15T00:17:16.733Z,81.12
2022-12-15T00:18:16.731Z,81.08
2022-12-15T00:19:16.722Z,80.97
2022-12-15T00:20:16.710Z,80.87
2022-12-15T00:21:16.692Z,80.97
2022-12-15T00:22:16.723Z,81.08
2022-12-15T00:23:16.672Z,80.93
2022-12-15T00:24:16.671Z,80.93
2022-12-15T00:25:16.650Z,81.04
2022-12-15T00:26:16.641Z,80.93
2022-12-15T00:27:16.632Z,80.73
2022-12-15T00:28:16.647Z,80.73
2022-12-15T00:29:16.610Z,80.83
2022-12-15T00:30:16.606Z,81.04
2022-12-15T00:31:16.611Z,81.04
2022-12-15T00:32:16.580Z,80.93
2022-12-15T00:33:16.569Z,81.04
2022-12-15T00:34:16.581Z,81.04
2022-12-15T00:35:16.547Z,80.93
2022-12-15T00:36:16.539Z,81.04
2022-12-15T00:37:16.519Z,81.25
2022-12-15T00:38:16.521Z,81.46
2022-12-15T00:39:16.499Z,81.88
2022-12-15T00:40:16.521Z,81.88
2022-12-15T00:41:16.490Z,82.06
2022-12-15T00:42:16.480Z,82.06
2022-12-15T00:43:16.458Z,81.92
2022-12-15T00:44:20.633Z,81.70
2022-12-15T00:45:16.446Z,81.39
2022-12-15T00:46:16.476Z,81.70
2022-12-15T00:47:16.416Z,81.81
2022-12-15T00:48:16.407Z,82.02
2022-12-15T00:49:16.398Z,81.81
2022-12-15T00:50:16.387Z,81.92
2022-12-15T00:51:16.446Z,81.92
2022-12-15T00:52:16.367Z,81.67
2022-12-15T00:53:16.346Z,81.56
2022-12-15T00:54:18.131Z,81.46
2022-12-15T00:55:16.331Z,81.35
2022-12-15T00:56:16.326Z,81.46
2022-12-15T00:57:16.326Z,81.35
2022-12-15T00:58:16.305Z,81.24
2022-12-15T00:59:16.286Z,81.14
2022-12-15T01:00:16.284Z,81.14
2022-12-15T01:01:16.273Z,81.14
2022-12-15T01:02:16.336Z,81.21
2022-12-15T01:03:16.365Z,81.10
2022-12-15T01:04:16.272Z,81.10
2022-12-15T01:05:16.226Z,81.10
2022-12-15T01:06:16.215Z,81.10
2022-12-15T01:07:16.204Z,81.00
2022-12-15T01:08:16.192Z,81.00
2022-12-15T01:09:16.207Z,81.00
2022-12-15T01:10:16.174Z,81.10
2022-12-15T01:11:16.155Z,81.10
2022-12-15T01:12:16.151Z,81.42
2022-12-15T01:13:16.133Z,81.28
2022-12-15T01:14:16.145Z,81.21
2022-12-15T01:15:16.133Z,81.28
2022-12-15T01:16:16.205Z,81.49
2022-12-15T01:17:16.094Z,81.17
2022-12-15T01:18:16.124Z,81.10
2022-12-15T01:19:16.692Z,81.17
2022-12-15T01:20:16.063Z,81.00
2022-12-15T01:21:16.071Z,80.96
2022-12-15T01:22:16.043Z,81.17
2022-12-15T01:23:16.035Z,81.17
2022-12-15T01:24:16.020Z,81.28
2022-12-15T01:25:16.002Z,81.07
2022-12-15T01:26:16.002Z,81.28
2022-12-15T01:27:16.022Z,81.59
2022-12-15T01:28:15.983Z,81.59
2022-12-15T01:29:15.962Z,81.59
2022-12-15T01:30:15.960Z,81.49
2022-12-15T01:31:16.013Z,81.70
2022-12-15T01:32:15.940Z,81.91
2022-12-15T01:33:15.940Z,82.01
2022-12-15T01:34:15.910Z,82.01
2022-12-15T01:35:15.899Z,81.91
2022-12-15T01:36:15.892Z,82.12
2022-12-15T01:37:15.878Z,82.33
2022-12-15T01:38:15.868Z,82.33
2022-12-15T01:39:15.881Z,82.40
2022-12-15T01:40:15.851Z,82.50
2022-12-15T01:41:15.839Z,82.29
2022-12-15T01:42:15.832Z,82.29
2022-12-15T01:43:15.819Z,82.19
2022-12-15T01:44:15.806Z,82.19
2022-12-15T01:45:15.817Z,81.94
2022-12-15T01:46:15.832Z,81.98
2022-12-15T01:47:15.791Z,81.98
2022-12-15T01:48:15.759Z,81.98
2022-12-15T01:49:15.745Z,81.98
2022-12-15T01:50:15.746Z,81.94
2022-12-15T01:51:15.747Z,81.84
2022-12-15T01:52:15.716Z,81.84
2022-12-15T01:53:15.706Z,81.84
2022-12-15T01:54:15.697Z,81.73
2022-12-15T01:55:15.686Z,81.62
2022-12-15T01:56:15.675Z,81.73
2022-12-15T01:57:15.702Z,81.94
2022-12-15T01:58:15.655Z,82.04
2022-12-15T01:59:15.644Z,82.04
2022-12-15T02:00:15.635Z,82.04
2022-12-15T02:01:15.649Z,81.84
2022-12-15T02:02:15.768Z,81.73
2022-12-15T02:03:15.686Z,81.73
2022-12-15T02:04:15.593Z,81.94
2022-12-15T02:05:15.575Z,82.04
2022-12-15T02:06:15.564Z,82.04
2022-12-15T02:07:15.554Z,81.94
2022-12-15T02:08:15.555Z,81.90
2022-12-15T02:09:15.553Z,81.80
2022-12-15T02:10:15.525Z,81.70
2022-12-15T02:11:15.515Z,81.84
2022-12-15T02:12:15.712Z,81.84
2022-12-15T02:13:15.500Z,81.90
2022-12-15T02:14:15.484Z,81.80
2022-12-15T02:15:15.494Z,81.80
2022-12-15T02:16:15.529Z,81.80
2022-12-15T02:17:15.448Z,81.80
2022-12-15T02:18:15.445Z,81.90
2022-12-15T02:19:15.423Z,81.80
2022-12-15T02:20:15.421Z,81.90
2022-12-15T02:21:15.432Z,81.90
2022-12-15T02:22:15.402Z,81.80
2022-12-15T02:23:15.386Z,81.76
2022-12-15T02:24:15.371Z,81.65
2022-12-15T02:25:15.364Z,81.80
2022-12-15T02:26:15.355Z,81.87
2022-12-15T02:27:15.360Z,81.97
2022-12-15T02:28:15.332Z,81.97
2022-12-15T02:29:15.320Z,81.87
2022-12-15T02:30:15.310Z,81.55
2022-12-15T02:31:15.369Z,81.24
2022-12-15T02:32:15.321Z,81.55
2022-12-15T02:33:15.272Z,81.62
2022-12-15T02:34:15.270Z,81.73
2022-12-15T02:35:15.277Z,81.62
2022-12-15T02:36:15.248Z,81.51
2022-12-15T02:37:15.239Z,81.62
2022-12-15T02:38:15.250Z,81.73
2022-12-15T02:39:15.218Z,81.41
2022-12-15T02:40:15.207Z,81.41
2022-12-15T02:41:15.188Z,81.62
2022-12-15T02:42:15.180Z,81.73
2022-12-15T02:43:15.170Z,81.62
2022-12-15T02:44:15.178Z,81.51
2022-12-15T02:45:15.146Z,81.62
2022-12-15T02:46:15.157Z,81.51
2022-12-15T02:47:15.128Z,81.20
2022-12-15T02:48:15.117Z,81.09
2022-12-15T02:49:15.099Z,80.99
2022-12-15T02:50:15.118Z,81.20
2022-12-15T02:51:15.080Z,81.30
2022-12-15T02:52:15.077Z,81.20
2022-12-15T02:53:15.066Z,81.20
2022-12-15T02:54:15.058Z,81.62
2022-12-15T02:55:15.037Z,81.62
2022-12-15T02:56:15.087Z,81.62
2022-12-15T02:57:15.016Z,81.62
2022-12-15T02:58:15.003Z,81.62
2022-12-15T02:59:14.999Z,81.73
2022-12-15T03:00:14.987Z,81.83
2022-12-15T03:01:15.033Z,81.93
2022-12-15T03:02:15.101Z,81.83
2022-12-15T03:03:15.008Z,81.73
2022-12-15T03:04:14.937Z,81.62
2022-12-15T03:05:14.934Z,81.51
2022-12-15T03:06:14.916Z,81.30
2022-12-15T03:07:14.914Z,81.48
2022-12-15T03:08:14.924Z,81.48
2022-12-15T03:09:14.892Z,81.37
2022-12-15T03:10:14.879Z,81.27
2022-12-15T03:11:14.872Z,81.27
2022-12-15T03:12:14.854Z,81.16
2022-12-15T03:13:14.845Z,81.27
2022-12-15T03:14:14.855Z,81.16
2022-12-15T03:15:14.825Z,81.16
2022-12-15T03:16:14.843Z,81.27
2022-12-15T03:17:14.803Z,81.27
2022-12-15T03:18:14.795Z,81.37
2022-12-15T03:19:14.784Z,81.05
2022-12-15T03:20:14.793Z,81.05
2022-12-15T03:21:14.766Z,81.09
2022-12-15T03:22:14.743Z,81.20
2022-12-15T03:23:14.743Z,81.09
2022-12-15T03:24:14.730Z,81.16
2022-12-15T03:25:14.721Z,81.27
2022-12-15T03:26:14.722Z,81.16
2022-12-15T03:27:14.701Z,81.20
2022-12-15T03:28:14.682Z,81.09
2022-12-15T03:29:14.672Z,81.05
2022-12-15T03:30:14.705Z,81.05
2022-12-15T03:31:14.699Z,81.05
2022-12-15T03:32:14.738Z,81.16
2022-12-15T03:33:14.631Z,81.27
2022-12-15T03:34:14.622Z,81.27
2022-12-15T03:35:14.614Z,81.16
2022-12-15T03:36:14.599Z,81.16
2022-12-15T03:37:14.593Z,81.05
2022-12-15T03:38:14.599Z,81.05
2022-12-15T03:39:14.570Z,81.27
2022-12-15T03:40:14.550Z,81.37
2022-12-15T03:41:14.551Z,81.48
2022-12-15T03:42:14.529Z,81.27
2022-12-15T03:43:14.529Z,81.16
2022-12-15T03:44:14.529Z,81.16
2022-12-15T03:45:14.501Z,81.16
2022-12-15T03:46:14.546Z,81.16
2022-12-15T03:47:14.478Z,81.16
2022-12-15T03:48:14.470Z,81.48
2022-12-15T03:49:14.459Z,81.58
2022-12-15T03:50:14.473Z,81.37
2022-12-15T03:51:14.439Z,81.48
2022-12-15T03:52:14.429Z,81.79
2022-12-15T03:53:14.417Z,81.90
2022-12-15T03:54:14.398Z,82.10
2022-12-15T03:55:14.401Z,82.10
2022-12-15T03:56:14.405Z,82.32
2022-12-15T03:57:14.378Z,82.32
2022-12-15T03:58:14.357Z,82.21
2022-12-15T03:59:14.347Z,82.32
2022-12-15T04:00:14.338Z,82.42
2022-12-15T04:01:14.364Z,82.74
2022-12-15T04:02:14.545Z,82.95
2022-12-15T04:03:14.360Z,82.95
2022-12-15T04:04:14.301Z,82.95
2022-12-15T04:05:14.296Z,83.05
2022-12-15T04:06:14.276Z,82.95
2022-12-15T04:07:14.267Z,82.84
2022-12-15T04:08:14.274Z,82.74
2022-12-15T04:09:14.253Z,82.53
2022-12-15T04:10:14.238Z,82.32
2022-12-15T04:11:14.225Z,82.21
2022-12-15T04:12:14.226Z,82.53
2022-12-15T04:13:14.209Z,82.95
2022-12-15T04:14:14.214Z,83.26
2022-12-15T04:15:14.185Z,83.15
2022-12-15T04:16:19.537Z,83.26
2022-12-15T04:17:15.211Z,83.01
2022-12-15T04:18:14.150Z,83.01
2022-12-15T04:19:14.138Z,82.91
2022-12-15T04:20:14.151Z,83.01
2022-12-15T04:21:14.115Z,82.70
2022-12-15T04:22:17.926Z,82.81
2022-12-15T04:23:14.105Z,82.81
2022-12-15T04:24:14.082Z,82.76
2022-12-15T04:25:14.073Z,82.76
2022-12-15T04:26:14.081Z,82.76
2022-12-15T04:27:14.051Z,82.76
2022-12-15T04:28:14.039Z,82.76
2022-12-15T04:29:14.033Z,82.81
2022-12-15T04:30:14.013Z,83.12
2022-12-15T04:31:14.263Z,83.12
2022-12-15T04:32:14.020Z,82.91
2022-12-15T04:33:13.982Z,82.81
2022-12-15T04:34:13.982Z,82.66
2022-12-15T04:35:14.084Z,82.66
2022-12-15T04:36:13.951Z,82.56
2022-12-15T04:37:13.942Z,82.56
2022-12-15T04:38:13.958Z,82.56
2022-12-15T04:39:13.921Z,82.56
2022-12-15T04:40:13.911Z,82.87
2022-12-15T04:41:13.900Z,83.08
2022-12-15T04:42:13.888Z,82.98
2022-12-15T04:43:13.881Z,82.76
2022-12-15T04:44:13.903Z,83.08
2022-12-15T04:45:20.191Z,83.18
2022-12-15T04:46:14.936Z,83.08
2022-12-15T04:47:13.839Z,82.98
2022-12-15T04:48:13.820Z,82.87
2022-12-15T04:49:13.810Z,82.98
2022-12-15T04:50:13.819Z,83.08
2022-12-15T04:51:13.790Z,82.94
2022-12-15T04:52:13.778Z,82.87
2022-12-15T04:53:13.768Z,82.94
2022-12-15T04:54:13.767Z,82.94
2022-12-15T04:55:13.749Z,82.83
2022-12-15T04:56:18.260Z,82.73
2022-12-15T04:57:14.736Z,83.15
2022-12-15T04:58:13.709Z,83.61
2022-12-15T04:59:13.707Z,83.61
2022-12-15T05:00:13.691Z,83.71
2022-12-15T05:01:13.738Z,83.81
2022-12-15T05:02:13.782Z,84.34
2022-12-15T05:03:18.114Z,84.66
2022-12-15T05:04:14.722Z,85.28
2022-12-15T05:05:13.638Z,86.02
2022-12-15T05:06:13.637Z,86.19
2022-12-15T05:07:13.623Z,86.08
2022-12-15T05:08:20.663Z,85.98
2022-12-15T05:09:13.598Z,85.77
2022-12-15T05:10:15.333Z,85.88
2022-12-15T05:11:13.584Z,85.66
2022-12-15T05:12:13.565Z,85.52
2022-12-15T05:13:13.556Z,85.52
2022-12-15T05:14:13.562Z,85.52
2022-12-15T05:15:13.533Z,85.21
2022-12-15T05:16:13.553Z,85.10
2022-12-15T05:17:13.534Z,85.10
2022-12-15T05:18:13.497Z,85.00
2022-12-15T05:19:13.494Z,84.79
2022-12-15T05:20:13.495Z,84.79
2022-12-15T05:21:13.471Z,84.58
2022-12-15T05:22:13.462Z,84.89
2022-12-15T05:23:13.449Z,85.21
2022-12-15T05:24:13.435Z,85.10
2022-12-15T05:25:13.452Z,85.00
2022-12-15T05:26:13.409Z,84.68
2022-12-15T05:27:13.402Z,84.58
2022-12-15T05:28:13.391Z,84.89
2022-12-15T05:29:13.382Z,84.89
2022-12-15T05:30:13.371Z,85.21
2022-12-15T05:31:13.516Z,85.25
2022-12-15T05:32:13.390Z,85.66
2022-12-15T05:33:13.342Z,85.46
2022-12-15T05:34:13.329Z,85.77
2022-12-15T05:35:13.320Z,85.98
2022-12-15T05:36:13.300Z,86.19
2022-12-15T05:37:13.328Z,86.08
2022-12-15T05:38:13.282Z,86.19
2022-12-15T05:39:13.271Z,86.29
2022-12-15T05:40:13.262Z,86.15
2022-12-15T05:41:13.262Z,85.94
2022-12-15T05:42:13.239Z,85.73
2022-12-15T05:43:13.259Z,85.42
2022-12-15T05:44:13.219Z,85.52
2022-12-15T05:45:13.209Z,85.73
2022-12-15T05:46:13.226Z,85.52
2022-12-15T05:47:13.188Z,85.31
2022-12-15T05:48:13.170Z,85.10
2022-12-15T05:49:13.190Z,85.00
2022-12-15T05:50:13.158Z,85.00
2022-12-15T05:51:13.148Z,85.00
2022-12-15T05:52:13.128Z,85.00
2022-12-15T05:53:13.126Z,85.00
2022-12-15T05:54:13.108Z,84.79
2022-12-15T05:55:13.126Z,84.68
2022-12-15T05:56:13.099Z,85.00
2022-12-15T05:57:13.077Z,84.96
2022-12-15T05:58:13.066Z,84.85
2022-12-15T05:59:13.061Z,84.85
2022-12-15T06:00:13.040Z,84.68
2022-12-15T06:01:13.058Z,84.58
2022-12-15T06:02:13.120Z,85.35
2022-12-15T06:03:13.147Z,85.66
2022-12-15T06:04:13.085Z,85.88
2022-12-15T06:05:12.994Z,85.88
2022-12-15T06:06:12.977Z,86.29
2022-12-15T06:07:12.994Z,86.29
2022-12-15T06:08:12.955Z,86.61
2022-12-15T06:09:12.947Z,86.61
2022-12-15T06:10:12.936Z,86.61
2022-12-15T06:11:12.926Z,86.29
2022-12-15T06:12:12.915Z,86.65
2022-12-15T06:13:12.935Z,87.07
2022-12-15T06:14:12.913Z,87.38
2022-12-15T06:15:12.884Z,87.49
2022-12-15T06:16:12.927Z,88.12
2022-12-15T06:17:12.864Z,87.66
2022-12-15T06:18:12.845Z,87.55
2022-12-15T06:19:12.863Z,86.82
2022-12-15T06:20:12.824Z,87.17
2022-12-15T06:21:12.814Z,87.45
2022-12-15T06:22:12.808Z,87.49
2022-12-15T06:23:12.794Z,87.80
2022-12-15T06:24:12.782Z,87.91
2022-12-15T06:25:12.793Z,87.87
2022-12-15T06:26:12.774Z,87.66
2022-12-15T06:27:12.756Z,87.55
2022-12-15T06:28:12.738Z,87.34
2022-12-15T06:29:12.733Z,87.45
2022-12-15T06:30:12.713Z,87.45
2022-12-15T06:31:12.781Z,87.59
2022-12-15T06:32:12.788Z,87.91
2022-12-15T06:33:12.685Z,88.75
2022-12-15T06:34:12.672Z,88.85
2022-12-15T06:35:12.679Z,88.49
2022-12-15T06:36:12.669Z,88.07
2022-12-15T06:37:12.985Z,87.91
2022-12-15T06:38:12.628Z,88.54
2022-12-15T06:39:12.621Z,88.75
2022-12-15T06:40:12.612Z,89.48
2022-12-15T06:41:12.605Z,89.37
2022-12-15T06:42:12.747Z,89.37
2022-12-15T06:43:12.610Z,89.23
2022-12-15T06:44:12.560Z,88.60
2022-12-15T06:45:12.550Z,88.39
2022-12-15T06:46:12.583Z,87.76
2022-12-15T06:47:12.622Z,88.12
2022-12-15T06:48:12.520Z,88.54
2022-12-15T06:49:12.529Z,88.75
2022-12-15T06:50:12.509Z,89.62
2022-12-15T06:51:16.831Z,90.36
2022-12-15T06:52:13.476Z,90.36
2022-12-15T06:53:12.468Z,90.47
2022-12-15T06:54:12.459Z,90.11
2022-12-15T06:55:12.477Z,89.75
2022-12-15T06:56:12.429Z,89.23
2022-12-15T06:57:12.428Z,88.92
2022-12-15T06:58:12.409Z,88.29
2022-12-15T06:59:12.411Z,87.80
2022-12-15T07:00:12.474Z,88.18
2022-12-15T07:01:12.407Z,88.39
2022-12-15T07:02:12.541Z,88.49
2022-12-15T07:03:12.634Z,88.29
2022-12-15T07:04:12.471Z,87.76
2022-12-15T07:05:12.337Z,87.45
2022-12-15T07:06:12.327Z,87.45
2022-12-15T07:07:12.348Z,87.45
2022-12-15T07:08:12.297Z,87.34
2022-12-15T07:09:12.305Z,87.76
2022-12-15T07:10:12.285Z,87.66
2022-12-15T07:11:12.276Z,87.55
2022-12-15T07:12:12.257Z,87.45
2022-12-15T07:13:12.306Z,87.55
2022-12-15T07:14:12.235Z,87.76
2022-12-15T07:15:12.235Z,87.62
2022-12-15T07:16:12.327Z,87.24
2022-12-15T07:17:12.206Z,87.13
2022-12-15T07:18:12.200Z,87.45
2022-12-15T07:19:12.205Z,87.66
2022-12-15T07:20:12.175Z,88.29
2022-12-15T07:21:12.164Z,88.29
2022-12-15T07:22:12.156Z,87.76
2022-12-15T07:23:12.149Z,87.97
2022-12-15T07:24:12.138Z,88.29
2022-12-15T07:25:12.182Z,88.39
2022-12-15T07:26:12.105Z,88.60
2022-12-15T07:27:12.086Z,88.39
2022-12-15T07:28:12.094Z,87.97
2022-12-15T07:29:12.072Z,87.97
2022-12-15T07:30:12.064Z,88.60
2022-12-15T07:31:12.100Z,88.49
2022-12-15T07:32:12.041Z,88.39
2022-12-15T07:33:12.049Z,88.29
2022-12-15T07:34:12.023Z,87.66
2022-12-15T07:35:12.002Z,87.66
2022-12-15T07:36:11.994Z,87.66
2022-12-15T07:37:12.002Z,87.55
2022-12-15T07:38:11.976Z,87.30
2022-12-15T07:39:12.723Z,87.51
2022-12-15T07:40:11.953Z,87.30
2022-12-15T07:41:11.941Z,86.78
2022-12-15T07:42:11.932Z,86.88
2022-12-15T07:43:11.941Z,86.68
2022-12-15T07:44:11.913Z,86.57
2022-12-15T07:45:11.894Z,86.46
2022-12-15T07:46:11.956Z,86.57
2022-12-15T07:47:11.890Z,86.36
2022-12-15T07:48:11.860Z,86.25
2022-12-15T07:49:11.869Z,86.46
2022-12-15T07:50:11.840Z,86.43
2022-12-15T07:51:19.118Z,86.32
2022-12-15T07:52:12.822Z,86.00
2022-12-15T07:53:11.811Z,86.11
2022-12-15T07:54:11.801Z,86.11
2022-12-15T07:55:11.811Z,85.59
2022-12-15T07:56:11.781Z,85.38
2022-12-15T07:57:11.763Z,85.06
2022-12-15T07:58:11.751Z,85.17
2022-12-15T07:59:11.740Z,85.31
2022-12-15T08:00:11.737Z,86.15
2022-12-15T08:01:11.813Z,85.90
2022-12-15T08:02:11.866Z,85.48
2022-12-15T08:03:11.845Z,85.27
2022-12-15T08:04:11.689Z,85.31
2022-12-15T08:05:11.683Z,85.31
2022-12-15T08:06:11.723Z,85.48
2022-12-15T08:07:11.677Z,85.31
2022-12-15T08:08:15.318Z,86.15
2022-12-15T08:09:11.629Z,86.29
2022-12-15T08:10:11.619Z,86.71
2022-12-15T08:11:11.617Z,87.24
2022-12-15T08:12:11.598Z,87.55
2022-12-15T08:13:21.618Z,87.87
2022-12-15T08:14:17.218Z,87.24
2022-12-15T08:15:12.571Z,87.24
2022-12-15T08:16:11.604Z,87.45
2022-12-15T08:17:11.539Z,87.72
2022-12-15T08:18:11.538Z,86.99
2022-12-15T08:19:11.580Z,87.20
2022-12-15T08:20:11.565Z,86.57
2022-12-15T08:21:11.499Z,86.82
2022-12-15T08:22:11.488Z,88.07
2022-12-15T08:23:11.493Z,87.93
2022-12-15T08:24:11.467Z,87.20
2022-12-15T08:25:11.485Z,87.51
2022-12-15T08:26:11.455Z,87.30
2022-12-15T08:27:11.427Z,87.20
2022-12-15T08:28:11.430Z,87.45
2022-12-15T08:29:49.044Z,87.87
2022-12-15T08:30:12.467Z,88.14
2022-12-15T08:31:11.390Z,87.62
2022-12-15T08:32:11.436Z,87.72
2022-12-15T08:33:11.356Z,87.37
2022-12-15T08:34:11.356Z,87.12
2022-12-15T08:35:31.814Z,86.00
2022-12-15T08:36:12.355Z,86.22
2022-12-15T08:37:11.315Z,86.32
2022-12-15T08:38:11.305Z,86.00
2022-12-15T08:39:11.295Z,86.22
2022-12-15T08:40:11.295Z,86.32
2022-12-15T08:41:11.275Z,85.69
2022-12-15T08:42:11.296Z,85.38
2022-12-15T08:43:11.256Z,85.73
2022-12-15T08:44:11.253Z,86.15
2022-12-15T08:45:11.233Z,86.57
2022-12-15T08:46:11.241Z,86.68
2022-12-15T08:47:11.212Z,86.88
2022-12-15T08:48:11.224Z,86.63
2022-12-15T08:49:13.295Z,86.53
2022-12-15T08:50:12.176Z,86.32
2022-12-15T08:51:11.165Z,85.97
2022-12-15T08:52:11.154Z,85.65
2022-12-15T08:53:30.206Z,85.34
2022-12-15T08:54:12.155Z,84.81
2022-12-15T08:55:11.119Z,84.92
2022-12-15T08:56:11.114Z,84.64
2022-12-15T08:57:11.094Z,85.31
2022-12-15T08:58:11.098Z,85.69
2022-12-15T08:59:11.143Z,85.38
2022-12-15T09:00:11.102Z,85.31
2022-12-15T09:01:11.118Z,85.88
2022-12-15T09:02:11.102Z,86.68
2022-12-15T09:03:11.030Z,86.85
2022-12-15T09:04:11.082Z,86.53
2022-12-15T09:05:11.011Z,86.43
2022-12-15T09:06:11.034Z,85.69
2022-12-15T09:07:10.991Z,85.48
2022-12-15T09:08:10.982Z,85.63
2022-12-15T09:09:10.962Z,85.59
2022-12-15T09:10:10.964Z,85.63
2022-12-15T09:11:10.941Z,85.59
2022-12-15T09:12:10.961Z,85.80
2022-12-15T09:13:10.921Z,85.59
2022-12-15T09:14:10.909Z,85.34
2022-12-15T09:15:10.899Z,84.81
2022-12-15T09:16:11.302Z,84.71
2022-12-15T09:17:10.905Z,84.54
2022-12-15T09:18:10.890Z,84.54
2022-12-15T09:19:10.852Z,84.68
2022-12-15T09:20:14.173Z,84.72
2022-12-15T09:21:11.832Z,86.08
2022-12-15T09:22:10.838Z,86.51
2022-12-15T09:23:10.809Z,86.99
2022-12-15T09:24:10.850Z,86.68
2022-12-15T09:25:10.789Z,86.51
2022-12-15T09:26:10.791Z,86.61
2022-12-15T09:27:10.768Z,87.13
2022-12-15T09:28:10.766Z,86.99
2022-12-15T09:29:10.748Z,86.68
2022-12-15T09:30:10.798Z,86.99
2022-12-15T09:31:10.768Z,86.78
2022-12-15T09:32:14.047Z,86.46
2022-12-15T09:33:10.702Z,86.43
2022-12-15T09:34:10.689Z,85.90
2022-12-15T09:35:10.878Z,85.56
2022-12-15T09:36:10.706Z,85.83
2022-12-15T09:37:10.659Z,85.94
2022-12-15T09:38:10.649Z,85.90
2022-12-15T09:39:10.637Z,85.59
2022-12-15T09:40:10.626Z,85.13
2022-12-15T09:41:10.608Z,84.92
2022-12-15T09:42:10.627Z,84.61
2022-12-15T09:43:33.469Z,84.36
2022-12-15T09:44:11.579Z,84.15
2022-12-15T09:45:10.567Z,83.62
2022-12-15T09:46:10.595Z,83.42
2022-12-15T09:47:10.545Z,83.21
2022-12-15T09:48:10.566Z,83.52
2022-12-15T09:49:10.526Z,83.31
2022-12-15T09:50:10.516Z,83.10
2022-12-15T09:51:10.498Z,83.00
2022-12-15T09:52:11.222Z,83.10
2022-12-15T09:53:45.091Z,82.86
2022-12-15T09:54:11.493Z,82.79
2022-12-15T09:55:10.550Z,82.89
2022-12-15T09:56:10.449Z,82.58
2022-12-15T09:57:10.438Z,83.14
2022-12-15T09:59:11.407Z,83.52
2022-12-15T10:00:11.162Z,83.52
2022-12-15T10:01:10.385Z,83.83
2022-12-15T10:02:10.485Z,83.27
2022-12-15T10:03:10.506Z,82.96
2022-12-15T10:04:10.418Z,82.65
2022-12-15T10:05:10.343Z,82.71
2022-12-15T10:06:18.943Z,82.50
2022-12-15T10:07:11.314Z,82.19
2022-12-15T10:08:10.314Z,81.39
2022-12-15T10:09:10.301Z,81.95
2022-12-15T10:10:10.292Z,82.20
2022-12-15T10:11:10.283Z,82.93
2022-12-15T10:12:10.295Z,83.03
2022-12-15T10:13:10.255Z,83.35
2022-12-15T10:14:10.254Z,83.35
2022-12-15T10:15:10.236Z,83.45
2022-12-15T10:16:10.317Z,83.25
2022-12-15T10:17:10.212Z,83.45
2022-12-15T10:18:10.231Z,83.35
2022-12-15T10:19:10.191Z,83.56
2022-12-15T10:20:10.221Z,83.42
2022-12-15T10:21:10.162Z,83.21
2022-12-15T10:22:10.161Z,83.21
2022-12-15T10:23:10.166Z,83.31
2022-12-15T10:24:10.173Z,82.68
2022-12-15T10:25:11.342Z,82.26
2022-12-15T10:26:10.112Z,82.58
2022-12-15T10:27:10.103Z,82.65
2022-12-15T10:28:10.091Z,82.26
2022-12-15T10:29:10.084Z,82.02
2022-12-15T10:30:10.254Z,81.81
2022-12-15T10:31:10.129Z,82.02
2022-12-15T10:32:10.050Z,82.23
2022-12-15T10:33:10.043Z,82.12
2022-12-15T10:34:10.036Z,82.02
2022-12-15T10:35:10.501Z,81.92
2022-12-15T10:36:10.047Z,82.54
2022-12-15T10:37:09.993Z,82.40
2022-12-15T10:38:09.980Z,82.50
2022-12-15T10:39:12.950Z,82.36
2022-12-15T10:40:09.962Z,82.09
2022-12-15T10:41:09.954Z,82.15
2022-12-15T10:42:09.950Z,81.95
2022-12-15T10:43:09.928Z,81.63
2022-12-15T10:44:09.911Z,81.42
2022-12-15T10:45:09.910Z,81.21
2022-12-15T10:46:09.952Z,81.42
2022-12-15T10:47:09.879Z,80.90
2022-12-15T10:48:09.895Z,81.35
2022-12-15T10:49:09.858Z,81.39
2022-12-15T10:50:09.872Z,82.54
2022-12-15T10:51:09.839Z,82.23
2022-12-15T10:52:09.827Z,82.86
2022-12-15T10:53:09.816Z,82.86
2022-12-15T10:54:09.893Z,82.82
2022-12-15T10:55:09.791Z,82.60
2022-12-15T10:56:09.788Z,82.36
2022-12-15T10:57:09.770Z,82.05
2022-12-15T10:58:09.766Z,81.73
2022-12-15T10:59:09.750Z,81.52
2022-12-15T11:00:09.766Z,81.49
2022-12-15T11:01:09.773Z,81.11
2022-12-15T11:02:09.892Z,81.32
2022-12-15T11:03:09.881Z,81.38
2022-12-15T11:04:09.782Z,80.90
2022-12-15T11:05:09.694Z,81.21
2022-12-15T11:06:09.725Z,81.42
2022-12-15T11:07:09.665Z,81.25
2022-12-15T11:08:12.275Z,81.60
2022-12-15T11:09:09.645Z,82.86
2022-12-15T11:10:09.748Z,82.43
2022-12-15T11:11:09.615Z,82.89
2022-12-15T11:12:12.090Z,83.52
2022-12-15T11:13:09.594Z,83.42
2022-12-15T11:14:09.584Z,83.73
2022-12-15T11:15:09.578Z,83.80
2022-12-15T11:16:09.570Z,83.06
2022-12-15T11:17:09.545Z,83.27
2022-12-15T11:18:09.554Z,82.89
2022-12-15T11:19:09.535Z,83.21
2022-12-15T11:20:09.515Z,83.42
2022-12-15T11:21:09.503Z,83.06
2022-12-15T11:22:16.545Z,82.47
2022-12-15T11:23:09.485Z,82.65
2022-12-15T11:24:09.505Z,82.54
2022-12-15T11:25:09.467Z,82.23
2022-12-15T11:26:09.454Z,82.65
2022-12-15T11:27:09.454Z,82.43
2022-12-15T11:28:09.425Z,82.40
2022-12-15T11:29:09.415Z,82.82
2022-12-15T11:30:09.464Z,83.39
2022-12-15T11:31:09.393Z,83.45
2022-12-15T11:32:09.383Z,83.42
2022-12-15T11:33:09.384Z,83.17
2022-12-15T11:34:09.354Z,82.58
2022-12-15T11:35:09.355Z,82.58
2022-12-15T11:36:09.352Z,82.16
2022-12-15T11:37:09.331Z,82.26
2022-12-15T11:38:09.312Z,82.12
2022-12-15T11:39:09.364Z,82.12
2022-12-15T11:40:09.293Z,82.23
2022-12-15T11:41:09.282Z,82.19
2022-12-15T11:42:09.300Z,81.73
2022-12-15T11:43:09.265Z,81.00
2022-12-15T11:44:09.252Z,80.58
2022-12-15T11:45:09.241Z,80.48
2022-12-15T11:46:09.222Z,80.48
2022-12-15T11:47:09.224Z,80.69
2022-12-15T11:48:09.232Z,81.11
2022-12-15T11:49:09.196Z,81.46
2022-12-15T11:50:09.181Z,81.67
2022-12-15T11:51:09.172Z,81.56
2022-12-15T11:52:09.167Z,81.53
2022-12-15T11:53:09.153Z,82.20
2022-12-15T11:54:09.150Z,82.82
2022-12-15T11:55:09.130Z,83.39
2022-12-15T11:56:09.110Z,83.91
2022-12-15T11:57:09.105Z,84.08
2022-12-15T11:58:09.090Z,83.66
2022-12-15T11:59:09.088Z,83.28
2022-12-15T12:00:09.101Z,83.28
2022-12-15T12:01:09.060Z,83.91
2022-12-15T12:02:09.122Z,83.42
2022-12-15T12:03:09.072Z,84.05
2022-12-15T12:04:09.029Z,84.30
2022-12-15T12:05:09.023Z,84.93
2022-12-15T12:06:09.028Z,85.35
2022-12-15T12:07:08.999Z,85.10
2022-12-15T12:08:08.981Z,84.89
2022-12-15T12:09:08.969Z,84.64
2022-12-15T12:10:08.960Z,84.08
2022-12-15T12:11:08.981Z,83.03
2022-12-15T12:12:08.972Z,83.00
2022-12-15T12:13:08.928Z,83.10
2022-12-15T12:14:11.745Z,82.86
2022-12-15T12:15:08.908Z,82.75
2022-12-15T12:16:08.919Z,82.02
2022-12-15T12:17:08.887Z,81.95
2022-12-15T12:18:08.888Z,82.16
2022-12-15T12:19:08.905Z,82.54
2022-12-15T12:21:09.837Z,82.09
2022-12-15T12:22:08.826Z,81.32
2022-12-15T12:23:08.816Z,80.90
2022-12-15T12:24:08.829Z,80.69
2022-12-15T12:25:08.795Z,80.35
2022-12-15T12:26:08.778Z,81.39
2022-12-15T12:27:08.778Z,82.12
2022-12-15T12:28:08.757Z,81.98
2022-12-15T12:29:08.746Z,81.49
2022-12-15T12:30:08.759Z,81.18
2022-12-15T12:31:08.734Z,80.73
2022-12-15T12:32:08.716Z,80.24
2022-12-15T12:33:08.705Z,80.27
2022-12-15T12:34:08.696Z,81.18
2022-12-15T12:35:30.907Z,81.60
2022-12-15T12:36:09.728Z,81.87
2022-12-15T12:37:08.663Z,81.73
2022-12-15T12:38:08.647Z,80.93
2022-12-15T12:39:08.643Z,80.90
2022-12-15T12:40:08.628Z,80.79
2022-12-15T12:41:08.613Z,80.27
2022-12-15T12:42:08.637Z,80.38
2022-12-15T12:43:13.608Z,80.16
2022-12-15T12:44:09.583Z,80.27
2022-12-15T12:45:08.574Z,79.92
2022-12-15T12:46:08.563Z,79.71
2022-12-15T12:47:08.551Z,79.44
2022-12-15T12:48:08.551Z,79.44
2022-12-15T12:49:08.534Z,79.85
2022-12-15T12:50:08.514Z,80.06
2022-12-15T12:51:08.512Z,80.06
2022-12-15T12:52:08.491Z,79.89
2022-12-15T12:53:08.483Z,79.89
2022-12-15T12:54:08.492Z,79.89